sensor_id;sensor_type;location;lat;lon;timestamp;P1;durP1;ratioP1;P2;durP2;ratioP2
70313;SDS011;57725;47.526;18.986;2022-10-16T00:01:10;5.53;;;4.70;;
70313;SDS011;57725;47.526;18.986;2022-10-16T00:03:40;5.65;;;4.57;;
70313;SDS011;57725;47.526;18.986;2022-10-16T00:06:06;6.10;;;5.32;;
70313;SDS011;57725;47.526;18.986;2022-10-16T00:08:32;5.35;;;4.82;;
70313;SDS011;57725;47.526;18.986;2022-10-16T00:11:09;4.93;;;4.40;;
70313;SDS011;57725;47.526;18.986;2022-10-16T00:13:36;5.15;;;4.50;;
70313;SDS011;57725;47.526;18.986;2022-10-16T00:16:03;5.68;;;4.82;;
70313;SDS011;57725;47.526;18.986;2022-10-16T00:18:32;5.63;;;4.97;;
70313;SDS011;57725;47.526;18.986;2022-10-16T00:21:04;5.70;;;5.10;;
70313;SDS011;57725;47.526;18.986;2022-10-16T00:23:54;5.30;;;4.57;;
70313;SDS011;57725;47.526;18.986;2022-10-16T00:26:24;5.30;;;4.53;;
70313;SDS011;57725;47.526;18.986;2022-10-16T00:28:50;5.47;;;4.90;;
70313;SDS011;57725;47.526;18.986;2022-10-16T00:31:17;5.40;;;4.65;;
70313;SDS011;57725;47.526;18.986;2022-10-16T00:33:43;5.13;;;4.45;;
70313;SDS011;57725;47.526;18.986;2022-10-16T00:36:17;4.60;;;4.13;;
70313;SDS011;57725;47.526;18.986;2022-10-16T00:38:44;6.18;;;5.25;;
70313;SDS011;57725;47.526;18.986;2022-10-16T00:41:11;5.05;;;4.55;;
70313;SDS011;57725;47.526;18.986;2022-10-16T00:43:41;5.50;;;4.93;;
70313;SDS011;57725;47.526;18.986;2022-10-16T00:46:11;4.80;;;4.30;;
70313;SDS011;57725;47.526;18.986;2022-10-16T00:48:38;5.32;;;4.82;;
70313;SDS011;57725;47.526;18.986;2022-10-16T00:51:06;5.95;;;5.35;;
70313;SDS011;57725;47.526;18.986;2022-10-16T00:53:34;4.82;;;4.32;;
70313;SDS011;57725;47.526;18.986;2022-10-16T00:56:00;5.13;;;4.53;;
70313;SDS011;57725;47.526;18.986;2022-10-16T00:58:28;5.22;;;4.70;;
70313;SDS011;57725;47.526;18.986;2022-10-16T01:00:56;5.07;;;4.50;;
70313;SDS011;57725;47.526;18.986;2022-10-16T01:03:23;4.75;;;4.25;;
70313;SDS011;57725;47.526;18.986;2022-10-16T01:09:02;5.55;;;4.72;;
70313;SDS011;57725;47.526;18.986;2022-10-16T01:12:13;5.65;;;4.80;;
70313;SDS011;57725;47.526;18.986;2022-10-16T01:14:44;6.00;;;4.60;;
70313;SDS011;57725;47.526;18.986;2022-10-16T01:17:20;5.22;;;4.55;;
70313;SDS011;57725;47.526;18.986;2022-10-16T01:20:05;5.32;;;4.82;;
70313;SDS011;57725;47.526;18.986;2022-10-16T01:25:09;4.85;;;4.35;;
70313;SDS011;57725;47.526;18.986;2022-10-16T01:27:41;5.25;;;4.75;;
70313;SDS011;57725;47.526;18.986;2022-10-16T01:30:21;4.72;;;4.32;;
70313;SDS011;57725;47.526;18.986;2022-10-16T01:33:08;5.20;;;4.70;;
70313;SDS011;57725;47.526;18.986;2022-10-16T01:35:41;5.03;;;4.53;;
70313;SDS011;57725;47.526;18.986;2022-10-16T01:40:55;5.32;;;4.43;;
70313;SDS011;57725;47.526;18.986;2022-10-16T01:43:29;5.28;;;4.78;;
70313;SDS011;57725;47.526;18.986;2022-10-16T01:45:58;5.03;;;4.53;;
70313;SDS011;57725;47.526;18.986;2022-10-16T01:48:25;4.63;;;4.13;;
70313;SDS011;57725;47.526;18.986;2022-10-16T01:50:54;5.03;;;4.47;;
70313;SDS011;57725;47.526;18.986;2022-10-16T01:55:50;4.60;;;4.20;;
70313;SDS011;57725;47.526;18.986;2022-10-16T01:58:22;5.75;;;4.65;;
70313;SDS011;57725;47.526;18.986;2022-10-16T02:00:50;5.47;;;4.93;;
70313;SDS011;57725;47.526;18.986;2022-10-16T02:03:21;5.10;;;4.60;;
70313;SDS011;57725;47.526;18.986;2022-10-16T02:05:47;4.30;;;3.90;;
70313;SDS011;57725;47.526;18.986;2022-10-16T02:08:16;5.10;;;4.60;;
70313;SDS011;57725;47.526;18.986;2022-10-16T02:10:42;6.03;;;4.50;;
70313;SDS011;57725;47.526;18.986;2022-10-16T02:13:09;5.28;;;4.43;;
70313;SDS011;57725;47.526;18.986;2022-10-16T02:15:38;6.25;;;4.65;;
70313;SDS011;57725;47.526;18.986;2022-10-16T02:18:04;5.53;;;4.80;;
70313;SDS011;57725;47.526;18.986;2022-10-16T02:20:40;5.72;;;4.70;;
70313;SDS011;57725;47.526;18.986;2022-10-16T02:23:40;5.72;;;4.68;;
70313;SDS011;57725;47.526;18.986;2022-10-16T02:26:10;5.22;;;4.53;;
70313;SDS011;57725;47.526;18.986;2022-10-16T02:28:42;5.68;;;4.55;;
70313;SDS011;57725;47.526;18.986;2022-10-16T02:31:12;5.35;;;4.28;;
70313;SDS011;57725;47.526;18.986;2022-10-16T02:33:46;5.00;;;4.50;;
70313;SDS011;57725;47.526;18.986;2022-10-16T02:36:12;5.00;;;4.35;;
70313;SDS011;57725;47.526;18.986;2022-10-16T02:38:38;5.75;;;4.70;;
70313;SDS011;57725;47.526;18.986;2022-10-16T02:41:05;5.65;;;5.07;;
70313;SDS011;57725;47.526;18.986;2022-10-16T02:43:33;4.72;;;4.20;;
70313;SDS011;57725;47.526;18.986;2022-10-16T02:45:59;5.82;;;5.20;;
70313;SDS011;57725;47.526;18.986;2022-10-16T02:48:25;4.80;;;4.30;;
70313;SDS011;57725;47.526;18.986;2022-10-16T02:50:53;6.05;;;5.00;;
70313;SDS011;57725;47.526;18.986;2022-10-16T02:53:18;5.95;;;5.10;;
70313;SDS011;57725;47.526;18.986;2022-10-16T02:55:43;6.22;;;4.80;;
70313;SDS011;57725;47.526;18.986;2022-10-16T02:58:09;5.68;;;4.63;;
70313;SDS011;57725;47.526;18.986;2022-10-16T03:00:34;6.13;;;4.70;;
70313;SDS011;57725;47.526;18.986;2022-10-16T03:02:59;5.45;;;4.47;;
70313;SDS011;57725;47.526;18.986;2022-10-16T03:05:25;5.90;;;4.63;;
70313;SDS011;57725;47.526;18.986;2022-10-16T03:07:52;4.80;;;4.25;;
70313;SDS011;57725;47.526;18.986;2022-10-16T03:10:18;6.40;;;5.03;;
70313;SDS011;57725;47.526;18.986;2022-10-16T03:12:43;6.93;;;4.72;;
70313;SDS011;57725;47.526;18.986;2022-10-16T03:15:09;6.05;;;5.07;;
70313;SDS011;57725;47.526;18.986;2022-10-16T03:17:35;5.07;;;4.57;;
70313;SDS011;57725;47.526;18.986;2022-10-16T03:20:00;4.57;;;4.07;;
70313;SDS011;57725;47.526;18.986;2022-10-16T03:22:28;5.22;;;4.50;;
70313;SDS011;57725;47.526;18.986;2022-10-16T03:24:53;5.55;;;4.90;;
70313;SDS011;57725;47.526;18.986;2022-10-16T03:27:25;5.45;;;4.38;;
70313;SDS011;57725;47.526;18.986;2022-10-16T03:29:50;5.78;;;5.20;;
70313;SDS011;57725;47.526;18.986;2022-10-16T03:32:20;5.15;;;4.63;;
70313;SDS011;57725;47.526;18.986;2022-10-16T03:34:49;6.93;;;5.43;;
70313;SDS011;57725;47.526;18.986;2022-10-16T03:37:14;5.25;;;4.60;;
70313;SDS011;57725;47.526;18.986;2022-10-16T03:39:42;5.03;;;4.53;;
70313;SDS011;57725;47.526;18.986;2022-10-16T03:42:10;6.70;;;4.45;;
70313;SDS011;57725;47.526;18.986;2022-10-16T03:44:36;5.63;;;5.05;;
70313;SDS011;57725;47.526;18.986;2022-10-16T03:47:03;6.20;;;4.80;;
70313;SDS011;57725;47.526;18.986;2022-10-16T03:49:29;5.53;;;4.93;;
70313;SDS011;57725;47.526;18.986;2022-10-16T03:51:54;6.10;;;4.68;;
70313;SDS011;57725;47.526;18.986;2022-10-16T03:54:20;6.97;;;4.78;;
70313;SDS011;57725;47.526;18.986;2022-10-16T03:56:47;5.20;;;4.70;;
70313;SDS011;57725;47.526;18.986;2022-10-16T03:59:12;6.65;;;5.13;;
70313;SDS011;57725;47.526;18.986;2022-10-16T04:01:40;5.75;;;4.97;;
70313;SDS011;57725;47.526;18.986;2022-10-16T04:04:08;6.72;;;4.75;;
70313;SDS011;57725;47.526;18.986;2022-10-16T04:06:33;5.60;;;4.63;;
70313;SDS011;57725;47.526;18.986;2022-10-16T04:08:58;6.20;;;5.60;;
70313;SDS011;57725;47.526;18.986;2022-10-16T04:11:24;6.47;;;5.10;;
70313;SDS011;57725;47.526;18.986;2022-10-16T04:13:52;7.28;;;4.93;;
70313;SDS011;57725;47.526;18.986;2022-10-16T04:16:17;5.50;;;4.78;;
70313;SDS011;57725;47.526;18.986;2022-10-16T04:18:43;7.05;;;4.72;;
70313;SDS011;57725;47.526;18.986;2022-10-16T04:21:08;5.57;;;4.95;;
70313;SDS011;57725;47.526;18.986;2022-10-16T04:23:33;6.15;;;5.07;;
70313;SDS011;57725;47.526;18.986;2022-10-16T04:25:59;5.60;;;4.38;;
70313;SDS011;57725;47.526;18.986;2022-10-16T04:28:25;6.30;;;5.47;;
70313;SDS011;57725;47.526;18.986;2022-10-16T04:30:53;6.68;;;5.25;;
70313;SDS011;57725;47.526;18.986;2022-10-16T04:33:20;5.95;;;5.00;;
70313;SDS011;57725;47.526;18.986;2022-10-16T04:35:46;6.35;;;5.55;;
70313;SDS011;57725;47.526;18.986;2022-10-16T04:38:11;5.43;;;4.85;;
70313;SDS011;57725;47.526;18.986;2022-10-16T04:40:37;5.53;;;4.85;;
70313;SDS011;57725;47.526;18.986;2022-10-16T04:43:03;6.85;;;5.22;;
70313;SDS011;57725;47.526;18.986;2022-10-16T04:45:28;5.90;;;5.20;;
70313;SDS011;57725;47.526;18.986;2022-10-16T04:47:56;7.68;;;4.88;;
70313;SDS011;57725;47.526;18.986;2022-10-16T04:50:23;6.15;;;5.35;;
70313;SDS011;57725;47.526;18.986;2022-10-16T04:52:50;5.70;;;5.03;;
70313;SDS011;57725;47.526;18.986;2022-10-16T04:55:15;5.53;;;4.93;;
70313;SDS011;57725;47.526;18.986;2022-10-16T04:57:43;5.90;;;4.85;;
70313;SDS011;57725;47.526;18.986;2022-10-16T05:00:09;4.75;;;4.20;;
70313;SDS011;57725;47.526;18.986;2022-10-16T05:02:34;7.07;;;5.55;;
70313;SDS011;57725;47.526;18.986;2022-10-16T05:05:00;5.65;;;5.03;;
70313;SDS011;57725;47.526;18.986;2022-10-16T05:07:28;6.60;;;5.40;;
70313;SDS011;57725;47.526;18.986;2022-10-16T05:09:53;7.72;;;6.07;;
70313;SDS011;57725;47.526;18.986;2022-10-16T05:12:18;6.30;;;5.30;;
70313;SDS011;57725;47.526;18.986;2022-10-16T05:14:44;6.50;;;5.65;;
70313;SDS011;57725;47.526;18.986;2022-10-16T05:17:09;5.95;;;5.03;;
70313;SDS011;57725;47.526;18.986;2022-10-16T05:19:34;6.63;;;5.30;;
70313;SDS011;57725;47.526;18.986;2022-10-16T05:22:00;7.15;;;5.43;;
70313;SDS011;57725;47.526;18.986;2022-10-16T05:24:25;7.00;;;5.32;;
70313;SDS011;57725;47.526;18.986;2022-10-16T05:26:51;6.03;;;4.90;;
70313;SDS011;57725;47.526;18.986;2022-10-16T05:29:17;6.70;;;5.22;;
70313;SDS011;57725;47.526;18.986;2022-10-16T05:31:42;7.78;;;5.53;;
70313;SDS011;57725;47.526;18.986;2022-10-16T05:34:07;8.40;;;5.50;;
70313;SDS011;57725;47.526;18.986;2022-10-16T05:36:35;7.40;;;4.85;;
70313;SDS011;57725;47.526;18.986;2022-10-16T05:39:03;6.90;;;5.55;;
70313;SDS011;57725;47.526;18.986;2022-10-16T05:41:28;6.10;;;5.45;;
70313;SDS011;57725;47.526;18.986;2022-10-16T05:43:54;7.18;;;5.72;;
70313;SDS011;57725;47.526;18.986;2022-10-16T05:46:21;7.13;;;5.35;;
70313;SDS011;57725;47.526;18.986;2022-10-16T05:48:46;7.05;;;5.13;;
70313;SDS011;57725;47.526;18.986;2022-10-16T05:51:13;7.68;;;5.70;;
70313;SDS011;57725;47.526;18.986;2022-10-16T05:53:44;7.28;;;5.78;;
70313;SDS011;57725;47.526;18.986;2022-10-16T05:56:09;7.38;;;6.25;;
70313;SDS011;57725;47.526;18.986;2022-10-16T05:58:37;6.18;;;5.30;;
70313;SDS011;57725;47.526;18.986;2022-10-16T06:01:15;6.95;;;5.43;;
70313;SDS011;57725;47.526;18.986;2022-10-16T06:03:45;6.43;;;5.40;;
70313;SDS011;57725;47.526;18.986;2022-10-16T06:06:15;7.20;;;5.80;;
70313;SDS011;57725;47.526;18.986;2022-10-16T06:08:42;7.72;;;5.82;;
70313;SDS011;57725;47.526;18.986;2022-10-16T06:11:11;6.88;;;5.72;;
70313;SDS011;57725;47.526;18.986;2022-10-16T06:13:38;7.05;;;5.70;;
70313;SDS011;57725;47.526;18.986;2022-10-16T06:16:06;7.03;;;5.75;;
70313;SDS011;57725;47.526;18.986;2022-10-16T06:18:32;7.20;;;5.13;;
70313;SDS011;57725;47.526;18.986;2022-10-16T06:20:57;7.07;;;5.32;;
70313;SDS011;57725;47.526;18.986;2022-10-16T06:23:24;8.05;;;6.30;;
70313;SDS011;57725;47.526;18.986;2022-10-16T06:25:50;6.50;;;5.40;;
70313;SDS011;57725;47.526;18.986;2022-10-16T06:28:15;6.28;;;5.60;;
70313;SDS011;57725;47.526;18.986;2022-10-16T06:30:43;7.40;;;6.20;;
70313;SDS011;57725;47.526;18.986;2022-10-16T06:33:12;7.97;;;6.45;;
70313;SDS011;57725;47.526;18.986;2022-10-16T06:35:38;8.43;;;5.50;;
70313;SDS011;57725;47.526;18.986;2022-10-16T06:38:03;7.00;;;5.68;;
70313;SDS011;57725;47.526;18.986;2022-10-16T06:40:29;6.85;;;5.88;;
70313;SDS011;57725;47.526;18.986;2022-10-16T06:42:56;7.47;;;5.68;;
70313;SDS011;57725;47.526;18.986;2022-10-16T06:45:22;8.10;;;5.97;;
70313;SDS011;57725;47.526;18.986;2022-10-16T06:47:47;6.93;;;5.68;;
70313;SDS011;57725;47.526;18.986;2022-10-16T06:50:15;8.30;;;5.60;;
70313;SDS011;57725;47.526;18.986;2022-10-16T06:52:40;8.15;;;6.18;;
70313;SDS011;57725;47.526;18.986;2022-10-16T06:55:10;6.93;;;5.78;;
70313;SDS011;57725;47.526;18.986;2022-10-16T06:57:35;7.25;;;5.45;;
70313;SDS011;57725;47.526;18.986;2022-10-16T07:00:01;7.85;;;5.85;;
70313;SDS011;57725;47.526;18.986;2022-10-16T07:02:29;7.72;;;5.70;;
70313;SDS011;57725;47.526;18.986;2022-10-16T07:04:54;6.55;;;5.78;;
70313;SDS011;57725;47.526;18.986;2022-10-16T07:07:23;7.68;;;5.63;;
70313;SDS011;57725;47.526;18.986;2022-10-16T07:09:51;7.32;;;5.53;;
70313;SDS011;57725;47.526;18.986;2022-10-16T07:12:17;6.53;;;5.18;;
70313;SDS011;57725;47.526;18.986;2022-10-16T07:14:42;7.65;;;5.50;;
70313;SDS011;57725;47.526;18.986;2022-10-16T07:17:08;6.53;;;5.20;;
70313;SDS011;57725;47.526;18.986;2022-10-16T07:19:33;6.72;;;5.40;;
70313;SDS011;57725;47.526;18.986;2022-10-16T07:21:59;7.05;;;5.35;;
70313;SDS011;57725;47.526;18.986;2022-10-16T07:24:27;6.93;;;5.82;;
70313;SDS011;57725;47.526;18.986;2022-10-16T07:26:53;6.57;;;5.63;;
70313;SDS011;57725;47.526;18.986;2022-10-16T07:29:21;8.30;;;6.50;;
70313;SDS011;57725;47.526;18.986;2022-10-16T07:31:47;6.13;;;5.38;;
70313;SDS011;57725;47.526;18.986;2022-10-16T07:34:15;7.85;;;5.47;;
70313;SDS011;57725;47.526;18.986;2022-10-16T07:36:41;6.50;;;5.43;;
70313;SDS011;57725;47.526;18.986;2022-10-16T07:39:09;7.80;;;5.70;;
70313;SDS011;57725;47.526;18.986;2022-10-16T07:41:36;6.07;;;5.18;;
70313;SDS011;57725;47.526;18.986;2022-10-16T07:44:02;7.07;;;5.75;;
70313;SDS011;57725;47.526;18.986;2022-10-16T07:46:28;7.35;;;5.55;;
70313;SDS011;57725;47.526;18.986;2022-10-16T07:48:54;8.00;;;5.55;;
70313;SDS011;57725;47.526;18.986;2022-10-16T07:51:20;6.43;;;5.32;;
70313;SDS011;57725;47.526;18.986;2022-10-16T07:53:49;7.07;;;5.43;;
70313;SDS011;57725;47.526;18.986;2022-10-16T07:56:18;7.38;;;5.68;;
70313;SDS011;57725;47.526;18.986;2022-10-16T07:58:45;7.25;;;6.22;;
70313;SDS011;57725;47.526;18.986;2022-10-16T08:01:15;6.72;;;5.57;;
70313;SDS011;57725;47.526;18.986;2022-10-16T08:03:45;7.35;;;5.88;;
70313;SDS011;57725;47.526;18.986;2022-10-16T08:06:11;7.28;;;5.10;;
70313;SDS011;57725;47.526;18.986;2022-10-16T08:08:37;6.55;;;5.75;;
70313;SDS011;57725;47.526;18.986;2022-10-16T08:11:02;6.72;;;5.32;;
70313;SDS011;57725;47.526;18.986;2022-10-16T08:13:31;6.65;;;5.95;;
70313;SDS011;57725;47.526;18.986;2022-10-16T08:15:57;6.63;;;5.72;;
70313;SDS011;57725;47.526;18.986;2022-10-16T08:18:22;6.80;;;5.55;;
70313;SDS011;57725;47.526;18.986;2022-10-16T08:20:48;7.88;;;6.07;;
70313;SDS011;57725;47.526;18.986;2022-10-16T08:23:21;8.18;;;5.97;;
70313;SDS011;57725;47.526;18.986;2022-10-16T08:25:46;7.35;;;5.78;;
70313;SDS011;57725;47.526;18.986;2022-10-16T08:28:12;6.85;;;5.22;;
70313;SDS011;57725;47.526;18.986;2022-10-16T08:30:37;6.10;;;5.28;;
70313;SDS011;57725;47.526;18.986;2022-10-16T08:33:03;5.97;;;5.20;;
70313;SDS011;57725;47.526;18.986;2022-10-16T08:35:29;6.55;;;5.55;;
70313;SDS011;57725;47.526;18.986;2022-10-16T08:37:57;5.63;;;4.88;;
70313;SDS011;57725;47.526;18.986;2022-10-16T08:40:28;5.40;;;4.88;;
70313;SDS011;57725;47.526;18.986;2022-10-16T08:46:09;5.75;;;5.15;;
70313;SDS011;57725;47.526;18.986;2022-10-16T08:48:51;6.05;;;5.45;;
70313;SDS011;57725;47.526;18.986;2022-10-16T08:51:32;5.72;;;5.13;;
70313;SDS011;57725;47.526;18.986;2022-10-16T08:54:09;6.57;;;5.35;;
70313;SDS011;57725;47.526;18.986;2022-10-16T08:56:54;5.70;;;4.80;;
70313;SDS011;57725;47.526;18.986;2022-10-16T08:59:22;6.60;;;5.25;;
70313;SDS011;57725;47.526;18.986;2022-10-16T09:01:49;6.50;;;5.00;;
70313;SDS011;57725;47.526;18.986;2022-10-16T09:18:26;7.30;;;6.07;;
70313;SDS011;57725;47.526;18.986;2022-10-16T09:23:43;6.25;;;5.22;;
70313;SDS011;57725;47.526;18.986;2022-10-16T09:26:11;5.82;;;5.22;;
70313;SDS011;57725;47.526;18.986;2022-10-16T09:28:38;7.20;;;5.43;;
70313;SDS011;57725;47.526;18.986;2022-10-16T09:31:04;6.70;;;5.07;;
70313;SDS011;57725;47.526;18.986;2022-10-16T09:33:36;6.82;;;5.75;;
70313;SDS011;57725;47.526;18.986;2022-10-16T09:36:04;6.57;;;5.20;;
70313;SDS011;57725;47.526;18.986;2022-10-16T09:38:31;8.40;;;5.72;;
70313;SDS011;57725;47.526;18.986;2022-10-16T09:40:59;6.38;;;5.13;;
70313;SDS011;57725;47.526;18.986;2022-10-16T09:46:07;6.57;;;5.55;;
70313;SDS011;57725;47.526;18.986;2022-10-16T09:48:56;6.18;;;5.32;;
70313;SDS011;57725;47.526;18.986;2022-10-16T09:54:02;7.22;;;5.70;;
70313;SDS011;57725;47.526;18.986;2022-10-16T09:56:40;7.63;;;6.00;;
70313;SDS011;57725;47.526;18.986;2022-10-16T09:59:14;7.28;;;5.68;;
70313;SDS011;57725;47.526;18.986;2022-10-16T10:01:50;6.78;;;5.50;;
70313;SDS011;57725;47.526;18.986;2022-10-16T10:06:54;6.15;;;5.00;;
70313;SDS011;57725;47.526;18.986;2022-10-16T10:11:57;7.25;;;5.53;;
70313;SDS011;57725;47.526;18.986;2022-10-16T10:19:38;7.28;;;5.93;;
70313;SDS011;57725;47.526;18.986;2022-10-16T10:24:57;6.55;;;5.65;;
70313;SDS011;57725;47.526;18.986;2022-10-16T10:33:12;7.30;;;6.03;;
70313;SDS011;57725;47.526;18.986;2022-10-16T10:38:24;6.50;;;5.60;;
70313;SDS011;57725;47.526;18.986;2022-10-16T10:46:34;7.07;;;5.97;;
70313;SDS011;57725;47.526;18.986;2022-10-16T10:49:10;7.10;;;5.82;;
70313;SDS011;57725;47.526;18.986;2022-10-16T11:00:55;8.13;;;6.22;;
70313;SDS011;57725;47.526;18.986;2022-10-16T11:06:11;8.55;;;6.43;;
70313;SDS011;57725;47.526;18.986;2022-10-16T11:08:50;6.88;;;5.80;;
70313;SDS011;57725;47.526;18.986;2022-10-16T11:11:23;7.38;;;6.50;;
70313;SDS011;57725;47.526;18.986;2022-10-16T11:21:46;8.38;;;6.47;;
70313;SDS011;57725;47.526;18.986;2022-10-16T11:24:19;7.18;;;6.03;;
70313;SDS011;57725;47.526;18.986;2022-10-16T11:26:48;8.82;;;6.38;;
70313;SDS011;57725;47.526;18.986;2022-10-16T11:29:19;8.80;;;6.60;;
70313;SDS011;57725;47.526;18.986;2022-10-16T11:31:55;6.68;;;5.72;;
70313;SDS011;57725;47.526;18.986;2022-10-16T11:34:32;7.43;;;6.47;;
70313;SDS011;57725;47.526;18.986;2022-10-16T11:37:08;7.63;;;6.10;;
70313;SDS011;57725;47.526;18.986;2022-10-16T11:39:37;8.32;;;6.43;;
70313;SDS011;57725;47.526;18.986;2022-10-16T11:42:10;7.50;;;6.20;;
70313;SDS011;57725;47.526;18.986;2022-10-16T11:50:01;7.25;;;5.55;;
70313;SDS011;57725;47.526;18.986;2022-10-16T11:52:38;7.65;;;5.80;;
70313;SDS011;57725;47.526;18.986;2022-10-16T11:55:17;6.95;;;6.00;;
70313;SDS011;57725;47.526;18.986;2022-10-16T11:57:46;8.35;;;5.82;;
70313;SDS011;57725;47.526;18.986;2022-10-16T12:02:45;7.55;;;5.88;;
70313;SDS011;57725;47.526;18.986;2022-10-16T12:05:33;7.18;;;6.15;;
70313;SDS011;57725;47.526;18.986;2022-10-16T12:08:10;7.63;;;6.22;;
70313;SDS011;57725;47.526;18.986;2022-10-16T12:10:38;6.90;;;5.68;;
70313;SDS011;57725;47.526;18.986;2022-10-16T12:16:03;14.35;;;6.40;;
70313;SDS011;57725;47.526;18.986;2022-10-16T12:18:45;17.13;;;7.85;;
70313;SDS011;57725;47.526;18.986;2022-10-16T12:21:15;15.93;;;8.10;;
70313;SDS011;57725;47.526;18.986;2022-10-16T12:23:58;20.55;;;7.47;;
70313;SDS011;57725;47.526;18.986;2022-10-16T12:26:31;16.00;;;8.07;;
70313;SDS011;57725;47.526;18.986;2022-10-16T12:29:17;19.40;;;8.02;;
70313;SDS011;57725;47.526;18.986;2022-10-16T12:31:47;28.42;;;9.50;;
70313;SDS011;57725;47.526;18.986;2022-10-16T12:34:23;23.75;;;7.70;;
70313;SDS011;57725;47.526;18.986;2022-10-16T12:39:42;19.80;;;8.77;;
70313;SDS011;57725;47.526;18.986;2022-10-16T12:42:31;21.38;;;8.77;;
70313;SDS011;57725;47.526;18.986;2022-10-16T12:44:58;25.60;;;8.95;;
70313;SDS011;57725;47.526;18.986;2022-10-16T12:49:56;15.85;;;8.00;;
70313;SDS011;57725;47.526;18.986;2022-10-16T12:52:24;22.13;;;8.15;;
70313;SDS011;57725;47.526;18.986;2022-10-16T12:54:52;13.70;;;7.97;;
70313;SDS011;57725;47.526;18.986;2022-10-16T13:00:01;13.30;;;7.63;;
70313;SDS011;57725;47.526;18.986;2022-10-16T13:17:13;12.18;;;7.30;;
70313;SDS011;57725;47.526;18.986;2022-10-16T13:24:59;18.73;;;8.40;;
70313;SDS011;57725;47.526;18.986;2022-10-16T13:27:41;14.10;;;7.30;;
70313;SDS011;57725;47.526;18.986;2022-10-16T13:30:16;10.73;;;7.28;;
70313;SDS011;57725;47.526;18.986;2022-10-16T13:32:46;10.57;;;6.78;;
70313;SDS011;57725;47.526;18.986;2022-10-16T13:35:19;11.85;;;7.22;;
70313;SDS011;57725;47.526;18.986;2022-10-16T13:38:04;13.48;;;7.38;;
70313;SDS011;57725;47.526;18.986;2022-10-16T13:40:31;12.65;;;7.60;;
70313;SDS011;57725;47.526;18.986;2022-10-16T13:42:59;13.27;;;7.55;;
70313;SDS011;57725;47.526;18.986;2022-10-16T13:45:27;11.88;;;7.50;;
70313;SDS011;57725;47.526;18.986;2022-10-16T13:48:06;9.82;;;7.20;;
70313;SDS011;57725;47.526;18.986;2022-10-16T13:50:37;7.85;;;5.28;;
70313;SDS011;57725;47.526;18.986;2022-10-16T13:53:03;10.77;;;4.72;;
70313;SDS011;57725;47.526;18.986;2022-10-16T13:55:29;9.30;;;4.75;;
70313;SDS011;57725;47.526;18.986;2022-10-16T13:58:04;8.02;;;4.82;;
70313;SDS011;57725;47.526;18.986;2022-10-16T14:00:32;9.40;;;5.47;;
70313;SDS011;57725;47.526;18.986;2022-10-16T14:03:05;14.60;;;5.90;;
70313;SDS011;57725;47.526;18.986;2022-10-16T14:05:42;16.80;;;7.18;;
70313;SDS011;57725;47.526;18.986;2022-10-16T14:08:21;9.50;;;5.50;;
70313;SDS011;57725;47.526;18.986;2022-10-16T14:10:53;11.02;;;5.22;;
70313;SDS011;57725;47.526;18.986;2022-10-16T14:13:25;9.65;;;5.60;;
70313;SDS011;57725;47.526;18.986;2022-10-16T14:16:05;12.65;;;5.72;;
70313;SDS011;57725;47.526;18.986;2022-10-16T14:18:34;9.95;;;6.07;;
70313;SDS011;57725;47.526;18.986;2022-10-16T14:21:04;10.35;;;6.07;;
70313;SDS011;57725;47.526;18.986;2022-10-16T14:23:35;10.90;;;6.35;;
70313;SDS011;57725;47.526;18.986;2022-10-16T14:26:06;7.55;;;6.20;;
70313;SDS011;57725;47.526;18.986;2022-10-16T14:28:41;11.13;;;6.75;;
70313;SDS011;57725;47.526;18.986;2022-10-16T14:33:58;9.57;;;6.22;;
70313;SDS011;57725;47.526;18.986;2022-10-16T14:36:27;9.48;;;6.30;;
70313;SDS011;57725;47.526;18.986;2022-10-16T14:41:41;8.82;;;6.57;;
70313;SDS011;57725;47.526;18.986;2022-10-16T14:44:12;9.65;;;6.90;;
70313;SDS011;57725;47.526;18.986;2022-10-16T14:46:39;11.38;;;6.32;;
70313;SDS011;57725;47.526;18.986;2022-10-16T14:51:38;8.43;;;5.88;;
70313;SDS011;57725;47.526;18.986;2022-10-16T14:54:09;9.15;;;6.10;;
70313;SDS011;57725;47.526;18.986;2022-10-16T14:56:46;8.32;;;6.10;;
70313;SDS011;57725;47.526;18.986;2022-10-16T14:59:57;7.47;;;5.65;;
70313;SDS011;57725;47.526;18.986;2022-10-16T15:04:45;9.15;;;6.00;;
70313;SDS011;57725;47.526;18.986;2022-10-16T15:07:11;7.80;;;5.90;;
70313;SDS011;57725;47.526;18.986;2022-10-16T15:09:38;8.30;;;5.88;;
70313;SDS011;57725;47.526;18.986;2022-10-16T15:12:07;9.73;;;5.78;;
70313;SDS011;57725;47.526;18.986;2022-10-16T15:14:32;9.52;;;6.30;;
70313;SDS011;57725;47.526;18.986;2022-10-16T15:16:57;7.82;;;5.55;;
70313;SDS011;57725;47.526;18.986;2022-10-16T15:19:23;7.55;;;5.63;;
70313;SDS011;57725;47.526;18.986;2022-10-16T15:21:50;7.38;;;5.95;;
70313;SDS011;57725;47.526;18.986;2022-10-16T15:24:20;9.20;;;5.95;;
70313;SDS011;57725;47.526;18.986;2022-10-16T15:26:48;7.47;;;5.60;;
70313;SDS011;57725;47.526;18.986;2022-10-16T15:29:14;7.53;;;6.20;;
70313;SDS011;57725;47.526;18.986;2022-10-16T15:31:39;9.68;;;6.75;;
70313;SDS011;57725;47.526;18.986;2022-10-16T15:34:09;6.72;;;5.80;;
70313;SDS011;57725;47.526;18.986;2022-10-16T15:36:36;9.23;;;6.18;;
70313;SDS011;57725;47.526;18.986;2022-10-16T15:39:05;8.23;;;5.63;;
70313;SDS011;57725;47.526;18.986;2022-10-16T15:41:37;6.90;;;5.63;;
70313;SDS011;57725;47.526;18.986;2022-10-16T15:44:03;7.65;;;5.57;;
70313;SDS011;57725;47.526;18.986;2022-10-16T15:46:28;8.20;;;5.97;;
70313;SDS011;57725;47.526;18.986;2022-10-16T15:48:56;7.70;;;6.20;;
70313;SDS011;57725;47.526;18.986;2022-10-16T15:51:22;7.57;;;5.75;;
70313;SDS011;57725;47.526;18.986;2022-10-16T15:53:48;7.65;;;5.65;;
70313;SDS011;57725;47.526;18.986;2022-10-16T15:56:17;7.18;;;5.80;;
70313;SDS011;57725;47.526;18.986;2022-10-16T15:58:47;7.88;;;5.97;;
70313;SDS011;57725;47.526;18.986;2022-10-16T16:01:12;7.75;;;5.28;;
70313;SDS011;57725;47.526;18.986;2022-10-16T16:03:38;7.43;;;5.55;;
70313;SDS011;57725;47.526;18.986;2022-10-16T16:06:06;7.53;;;5.78;;
70313;SDS011;57725;47.526;18.986;2022-10-16T16:08:34;6.70;;;5.78;;
70313;SDS011;57725;47.526;18.986;2022-10-16T16:11:03;8.55;;;5.88;;
70313;SDS011;57725;47.526;18.986;2022-10-16T16:13:34;7.45;;;5.38;;
70313;SDS011;57725;47.526;18.986;2022-10-16T16:15:59;7.32;;;5.78;;
70313;SDS011;57725;47.526;18.986;2022-10-16T16:18:25;8.60;;;5.45;;
70313;SDS011;57725;47.526;18.986;2022-10-16T16:20:51;6.10;;;5.22;;
70313;SDS011;57725;47.526;18.986;2022-10-16T16:23:20;7.22;;;5.63;;
70313;SDS011;57725;47.526;18.986;2022-10-16T16:28:35;6.82;;;5.25;;
70313;SDS011;57725;47.526;18.986;2022-10-16T16:31:02;7.80;;;6.05;;
70313;SDS011;57725;47.526;18.986;2022-10-16T16:33:30;7.72;;;5.47;;
70313;SDS011;57725;47.526;18.986;2022-10-16T16:35:58;7.30;;;5.65;;
70313;SDS011;57725;47.526;18.986;2022-10-16T16:38:24;6.18;;;5.53;;
70313;SDS011;57725;47.526;18.986;2022-10-16T16:40:50;7.78;;;6.32;;
70313;SDS011;57725;47.526;18.986;2022-10-16T16:43:16;6.20;;;4.97;;
70313;SDS011;57725;47.526;18.986;2022-10-16T16:45:42;6.63;;;5.97;;
70313;SDS011;57725;47.526;18.986;2022-10-16T16:48:10;6.63;;;5.90;;
70313;SDS011;57725;47.526;18.986;2022-10-16T16:50:40;7.28;;;6.07;;
70313;SDS011;57725;47.526;18.986;2022-10-16T16:53:05;6.63;;;5.50;;
70313;SDS011;57725;47.526;18.986;2022-10-16T16:55:33;6.20;;;5.60;;
70313;SDS011;57725;47.526;18.986;2022-10-16T16:57:58;5.53;;;4.88;;
70313;SDS011;57725;47.526;18.986;2022-10-16T17:00:27;5.63;;;4.85;;